Time;durP1;ratioP1;P1;durP2;ratioP2;P2;SDS_P1;SDS_P2;PMS_P1;PMS_P2;Temp;Humidity;BMP_temperature;BMP_pressure;BME280_temperature;BME280_humidity;BME280_pressure;Samples;Min_cycle;Max_cycle;Signal;HPM_P1;HPM_P2
2021/11/02 00:00:23;;;;;;;4.72;1.50;;;;;;;11.89;66.10;95793.34;4976788;28;20585;-80
2021/11/02 00:02:48;;;;;;;3.65;1.48;;;;;;;11.87;66.47;95791.03;4976246;28;20575;-81
2021/11/02 00:05:14;;;;;;;3.60;1.30;;;;;;;11.89;66.25;95795.94;4973283;28;20041;-81
2021/11/02 00:07:41;;;;;;;4.35;1.65;;;;;;;11.94;65.70;95780.25;4973347;28;20109;-80
2021/11/02 00:10:07;;;;;;;4.55;1.55;;;;;;;11.90;65.09;95782.63;4956899;28;20093;-81
2021/11/02 00:12:33;;;;;;;2.13;1.45;;;;;;;11.80;65.62;95774.97;4957099;28;20034;-81
2021/11/02 00:14:58;;;;;;;3.88;1.55;;;;;;;11.75;65.38;95775.81;4966196;28;20116;-80
2021/11/02 00:17:26;;;;;;;1.92;1.33;;;;;;;11.80;66.17;95775.75;4975744;28;20117;-80
2021/11/02 00:19:56;;;;;;;3.40;1.42;;;;;;;11.79;65.89;95774.22;5001104;28;20037;-80
2021/11/02 00:22:23;;;;;;;3.33;1.58;;;;;;;11.80;66.27;95760.09;4958102;28;20054;-80
2021/11/02 00:27:29;;;;;;;3.40;1.90;;;;;;;11.44;66.37;95763.28;4991900;28;20036;-80
2021/11/02 00:29:54;;;;;;;3.40;1.83;;;;;;;11.56;66.59;95768.03;4991087;28;20042;-82
2021/11/02 00:32:20;;;;;;;5.60;2.17;;;;;;;11.67;66.38;95766.06;4973028;28;20034;-81
2021/11/02 00:34:45;;;;;;;4.15;2.00;;;;;;;11.70;66.43;95765.47;4989955;28;20087;-81
2021/11/02 00:37:11;;;;;;;5.20;1.90;;;;;;;11.63;66.57;95759.84;4972707;28;20026;-81
2021/11/02 00:39:36;;;;;;;4.05;1.83;;;;;;;11.77;66.64;95768.50;4972306;28;20034;-80
2021/11/02 00:42:02;;;;;;;5.88;2.30;;;;;;;11.70;66.81;95764.72;5003304;28;20368;-81
2021/11/02 00:44:27;;;;;;;3.45;1.63;;;;;;;11.69;66.51;95766.56;5007662;28;20532;-81
2021/11/02 00:46:55;;;;;;;4.80;2.42;;;;;;;11.71;66.11;95767.03;4991996;28;20044;-81
2021/11/02 00:49:23;;;;;;;4.38;2.10;;;;;;;11.71;66.27;95761.06;4986247;28;20562;-81
2021/11/02 00:51:50;;;;;;;4.47;2.40;;;;;;;11.68;66.23;95769.44;4970942;28;20477;-81
2021/11/02 00:54:15;;;;;;;6.60;2.30;;;;;;;11.60;66.28;95766.44;4969400;28;20030;-81
2021/11/02 00:56:41;;;;;;;4.63;2.30;;;;;;;11.62;66.53;95755.72;4990603;28;20041;-82
2021/11/02 00:59:07;;;;;;;6.40;3.33;;;;;;;11.69;66.79;95768.41;4991501;28;20327;-81
2021/11/02 01:01:33;;;;;;;6.15;2.45;;;;;;;11.72;66.92;95755.56;4991300;28;20361;-81
2021/11/02 01:03:59;;;;;;;4.65;2.70;;;;;;;11.74;66.72;95763.88;5008652;28;20061;-81
2021/11/02 01:06:25;;;;;;;4.47;2.55;;;;;;;11.73;67.22;95759.69;4974192;28;20021;-80
2021/11/02 01:08:51;;;;;;;5.53;2.67;;;;;;;11.72;66.99;95750.34;4958702;28;20129;-81
2021/11/02 01:11:17;;;;;;;6.47;2.88;;;;;;;11.75;66.89;95754.97;4971474;28;20101;-81
2021/11/02 01:13:43;;;;;;;5.68;2.50;;;;;;;11.83;66.97;95761.38;4954938;28;20022;-81
2021/11/02 01:16:08;;;;;;;6.97;2.80;;;;;;;11.93;66.84;95750.03;4965704;28;20048;-81
2021/11/02 01:18:35;;;;;;;4.10;2.65;;;;;;;11.94;66.61;95756.78;5007123;28;20101;-81
2021/11/02 01:21:02;;;;;;;4.93;2.35;;;;;;;11.96;67.17;95744.22;4990097;28;20033;-81
2021/11/02 01:23:27;;;;;;;5.60;2.47;;;;;;;11.88;67.46;95753.47;4990496;28;20042;-81
2021/11/02 01:25:53;;;;;;;4.65;2.55;;;;;;;11.93;67.17;95745.56;4981732;28;20092;-81
2021/11/02 01:28:19;;;;;;;3.40;2.10;;;;;;;12.00;67.12;95750.41;4971163;28;20070;-81
2021/11/02 01:30:45;;;;;;;3.80;2.03;;;;;;;12.05;66.56;95747.72;4982201;28;20604;-80
2021/11/02 01:33:10;;;;;;;5.22;2.28;;;;;;;12.01;66.58;95749.34;4989997;28;20119;-80
2021/11/02 01:35:37;;;;;;;4.97;2.60;;;;;;;11.85;67.21;95748.03;4984158;28;20036;-81
2021/11/02 01:38:04;;;;;;;5.55;2.22;;;;;;;11.86;66.65;95752.19;4971443;28;20081;-81
2021/11/02 01:40:30;;;;;;;3.83;2.20;;;;;;;12.01;66.62;95753.78;4967366;28;20079;-82
2021/11/02 01:42:55;;;;;;;4.10;2.22;;;;;;;12.05;66.55;95747.72;4989894;28;20148;-80
2021/11/02 01:45:26;;;;;;;4.80;2.15;;;;;;;11.86;67.15;95746.97;4988558;28;20093;-80
2021/11/02 01:47:52;;;;;;;5.95;2.20;;;;;;;11.97;66.63;95746.53;4990201;28;20041;-81
2021/11/02 01:50:17;;;;;;;4.35;2.15;;;;;;;11.89;66.73;95736.75;4972654;28;20045;-80
2021/11/02 01:52:43;;;;;;;4.55;2.28;;;;;;;11.94;66.28;95739.31;5003446;28;20372;-81
2021/11/02 01:55:11;;;;;;;6.05;2.50;;;;;;;11.94;66.94;95746.34;4987809;28;20377;-82
2021/11/02 01:57:38;;;;;;;3.45;2.13;;;;;;;12.03;66.38;95747.25;4990432;28;20534;-80
2021/11/02 02:00:07;;;;;;;3.70;2.10;;;;;;;11.92;66.04;95743.25;4990340;28;20106;-80
2021/11/02 02:02:44;;;;;;;4.55;1.77;;;;;;;11.63;67.02;95749.44;4973984;28;20022;-82
2021/11/02 02:05:27;;;;;;;4.72;2.13;;;;;;;11.66;66.69;95753.31;5005649;28;20022;-81
2021/11/02 02:08:07;;;;;;;3.85;2.10;;;;;;;11.75;66.58;95747.13;4986433;28;20062;-81
2021/11/02 02:11:10;;;;;;;4.90;2.50;;;;;;;11.80;66.77;95756.72;4970929;28;20026;-81
2021/11/02 02:13:42;;;;;;;3.22;2.25;;;;;;;11.69;66.57;95748.31;4970013;28;20117;-81
2021/11/02 02:16:24;;;;;;;4.28;2.22;;;;;;;11.72;66.89;95752.16;4978267;28;20539;-81
2021/11/02 02:18:58;;;;;;;3.60;2.30;;;;;;;11.72;66.86;95746.94;5006292;28;20037;-80
2021/11/02 02:21:48;;;;;;;5.20;2.47;;;;;;;11.86;66.41;95752.97;4990228;28;20042;-80
2021/11/02 02:24:22;;;;;;;3.63;2.03;;;;;;;12.07;66.00;95757.88;5001306;28;20026;-81
2021/11/02 02:27:00;;;;;;;4.60;2.45;;;;;;;11.87;66.71;95746.69;4992173;28;20380;-80
2021/11/02 02:29:26;;;;;;;5.22;2.28;;;;;;;11.98;66.59;95749.94;4970466;28;20403;-81
2021/11/02 02:31:53;;;;;;;3.80;1.90;;;;;;;11.91;66.29;95749.53;4985065;28;20492;-80
2021/11/02 02:34:21;;;;;;;3.72;2.40;;;;;;;11.95;65.89;95747.91;4990353;28;20124;-80
2021/11/02 02:36:50;;;;;;;7.32;2.60;;;;;;;11.96;66.30;95745.00;4955109;28;20030;-81
2021/11/02 02:39:16;;;;;;;3.75;2.55;;;;;;;11.96;65.88;95742.41;4971214;28;20038;-81
2021/11/02 02:41:42;;;;;;;10.38;2.83;;;;;;;11.93;65.91;95742.19;4963079;28;20076;-81
2021/11/02 02:44:08;;;;;;;6.05;2.63;;;;;;;11.95;66.25;95745.28;4990423;28;20045;-81
2021/11/02 02:46:36;;;;;;;5.40;2.78;;;;;;;11.89;66.17;95747.19;4974476;28;20030;-81
2021/11/02 02:49:01;;;;;;;7.88;3.42;;;;;;;11.93;66.07;95742.97;4990150;28;20092;-80
2021/11/02 02:51:27;;;;;;;4.07;2.53;;;;;;;11.93;66.10;95742.97;5007393;28;20112;-80
2021/11/02 02:53:54;;;;;;;4.53;2.50;;;;;;;11.84;66.74;95739.47;4987722;28;20518;-80
2021/11/02 02:56:20;;;;;;;5.50;2.60;;;;;;;11.96;66.17;95739.00;4971117;28;20140;-80
2021/11/02 02:58:47;;;;;;;4.40;2.35;;;;;;;11.96;65.99;95742.41;4971197;28;20332;-81
2021/11/02 03:01:16;;;;;;;4.22;2.38;;;;;;;11.84;65.97;95738.66;4939096;28;20324;-81
2021/11/02 03:03:55;;;;;;;4.22;2.40;;;;;;;11.78;66.56;95748.41;4938564;28;20037;-80
2021/11/02 03:06:27;;;;;;;3.80;2.33;;;;;;;11.75;66.44;95741.94;4971041;28;20165;-80
2021/11/02 03:08:53;;;;;;;5.07;2.53;;;;;;;11.95;65.92;95740.06;4954710;28;20363;-80
2021/11/02 03:11:19;;;;;;;8.43;2.60;;;;;;;12.03;66.17;95747.25;4938930;28;20031;-81
2021/11/02 03:13:49;;;;;;;5.10;2.75;;;;;;;11.97;65.86;95743.16;4970809;28;20312;-81
2021/11/02 03:16:19;;;;;;;6.07;2.45;;;;;;;11.88;66.12;95744.88;4971388;28;20072;-80
2021/11/02 03:19:33;;;;;;;5.75;2.58;;;;;;;11.78;66.15;95740.59;4968240;28;20022;-80
2021/11/02 03:54:39;;;;;;;4.78;2.83;;;;;;;11.93;64.81;95752.63;4992345;28;20119;-80
2021/11/02 03:57:15;;;;;;;4.55;2.60;;;;;;;11.83;65.37;95750.16;4979650;28;20496;-80
2021/11/02 04:27:29;;;;;;;3.95;2.38;;;;;;;11.79;64.90;95753.34;5009726;28;20522;-80
2021/11/02 04:30:26;;;;;;;4.30;2.95;;;;;;;11.83;65.25;95753.53;4993169;28;20093;-80
2021/11/02 05:10:35;;;;;;;3.25;2.00;;;;;;;11.71;65.96;95730.53;4973995;28;20526;-80
2021/11/02 06:06:58;;;;;;;5.10;2.00;;;;;;;11.53;66.43;95728.75;4989051;28;20535;-79
2021/11/02 06:09:39;;;;;;;5.03;2.15;;;;;;;11.70;66.07;95728.97;5007098;28;20030;-80
2021/11/02 06:23:24;;;;;;;4.50;1.90;;;;;;;11.68;65.82;95720.66;4990342;28;20041;-80
2021/11/02 06:29:03;;;;;;;4.85;1.67;;;;;;;11.73;65.46;95723.19;4993347;28;20527;-80
2021/11/02 06:31:36;;;;;;;4.70;1.73;;;;;;;11.76;65.14;95716.66;4990527;28;20073;-80
2021/11/02 06:34:10;;;;;;;6.82;2.65;;;;;;;11.70;65.47;95723.75;4990476;28;20423;-80
2021/11/02 06:56:14;;;;;;;6.03;1.98;;;;;;;11.67;65.62;95744.41;5008795;28;20484;-80
2021/11/02 07:15:32;;;;;;;3.35;1.15;;;;;;;11.96;65.17;95741.59;5007496;28;20522;-80
2021/11/02 07:26:18;;;;;;;5.28;1.20;;;;;;;12.01;64.91;95743.34;4995027;28;20391;-80
2021/11/02 08:47:26;;;;;;;1.70;1.05;;;;;;;12.44;65.80;95745.69;4953555;28;20084;-80
2021/11/02 08:49:52;;;;;;;2.00;0.77;;;;;;;12.51;65.15;95746.84;4970357;28;20021;-79
2021/11/02 08:52:18;;;;;;;1.05;0.90;;;;;;;12.48;65.49;95744.06;4951825;28;20273;-80
2021/11/02 08:54:46;;;;;;;3.25;0.98;;;;;;;12.48;65.33;95746.66;4981597;28;20030;-80
2021/11/02 08:57:12;;;;;;;2.63;0.70;;;;;;;12.47;65.17;95742.50;4982091;28;20034;-80
2021/11/02 08:59:38;;;;;;;1.92;0.70;;;;;;;12.49;65.83;95737.75;4967294;28;20443;-80
2021/11/02 09:02:07;;;;;;;1.63;0.60;;;;;;;12.16;66.17;95749.06;4987919;28;20030;-79
2021/11/02 09:04:32;;;;;;;1.33;0.60;;;;;;;12.33;65.93;95747.72;4969087;28;20022;-80
2021/11/02 09:07:03;;;;;;;0.70;0.40;;;;;;;11.81;66.31;95735.56;5007013;28;20388;-79
2021/11/02 09:09:37;;;;;;;1.60;0.40;;;;;;;12.14;65.51;95745.97;5006624;28;20468;-79
2021/11/02 09:12:03;;;;;;;1.52;0.35;;;;;;;12.30;66.00;95746.47;4991424;28;20026;-79
2021/11/02 09:14:32;;;;;;;0.88;0.50;;;;;;;12.15;66.14;95744.16;4991707;28;20108;-79
2021/11/02 09:16:58;;;;;;;1.83;0.80;;;;;;;12.21;65.83;95756.03;4991946;28;20038;-80
2021/11/02 09:19:27;;;;;;;0.95;0.50;;;;;;;12.21;65.79;95761.25;4990726;28;20034;-80
2021/11/02 09:21:54;;;;;;;1.77;0.32;;;;;;;12.08;65.78;95760.19;4986535;28;20069;-80
2021/11/02 09:24:21;;;;;;;4.20;0.75;;;;;;;12.01;65.43;95757.16;4972397;28;20518;-79
2021/11/02 09:26:46;;;;;;;1.25;0.35;;;;;;;11.96;66.05;95759.84;4958684;28;20037;-79
2021/11/02 09:29:13;;;;;;;2.42;0.50;;;;;;;11.96;65.84;95765.06;4971417;28;20035;-79
2021/11/02 09:31:40;;;;;;;1.10;0.40;;;;;;;11.88;66.28;95753.47;4984702;28;20072;-79
2021/11/02 09:34:06;;;;;;;0.60;0.50;;;;;;;11.93;66.44;95756.00;4975225;28;20030;-80
2021/11/02 09:36:41;;;;;;;0.82;0.40;;;;;;;11.76;66.23;95753.91;4991051;28;20038;-80
2021/11/02 09:39:09;;;;;;;1.17;0.52;;;;;;;11.77;65.99;95760.69;4988607;28;20033;-80
2021/11/02 09:42:13;;;;;;;0.47;0.20;;;;;;;11.63;65.33;95770.28;4982640;28;20041;-80
2021/11/02 09:44:55;;;;;;;0.52;0.38;;;;;;;11.67;66.53;95771.28;5006755;28;20380;-80
2021/11/02 09:47:52;;;;;;;0.30;0.22;;;;;;;11.59;66.33;95770.09;4988529;28;20357;-81
2021/11/02 09:50:40;;;;;;;0.30;0.20;;;;;;;11.64;65.28;95769.25;5007368;28;20037;-80
2021/11/02 09:53:22;;;;;;;0.43;0.25;;;;;;;11.57;65.98;95767.00;4985802;28;20018;-80
2021/11/02 09:56:20;;;;;;;0.73;0.30;;;;;;;11.71;66.92;95766.28;4970615;28;20684;-79
2021/11/02 09:59:07;;;;;;;0.20;0.20;;;;;;;11.85;66.61;95761.09;4970747;28;20033;-80
2021/11/02 10:02:00;;;;;;;1.00;0.22;;;;;;;11.53;66.18;95765.22;4970629;28;20543;-80
2021/11/02 10:04:34;;;;;;;0.68;0.20;;;;;;;11.46;66.49;95768.19;4970487;28;20030;-80
2021/11/02 10:07:16;;;;;;;1.15;0.30;;;;;;;11.34;67.17;95763.41;4986795;28;20026;-80
2021/11/02 10:09:45;;;;;;;0.52;0.20;;;;;;;11.74;66.33;95761.25;4986282;28;20030;-80
2021/11/02 10:12:15;;;;;;;0.40;0.30;;;;;;;11.83;66.59;95758.75;4986392;28;20033;-80
2021/11/02 10:14:50;;;;;;;0.57;0.57;;;;;;;11.80;65.95;95761.94;4970515;28;20295;-80
2021/11/02 10:17:29;;;;;;;0.65;0.20;;;;;;;11.89;66.25;95755.00;4988281;28;20113;-80
2021/11/02 10:19:55;;;;;;;0.73;0.52;;;;;;;11.93;65.49;95757.84;4953623;28;20142;-80
2021/11/02 10:22:48;;;;;;;0.20;0.20;;;;;;;11.52;66.39;95761.09;4993223;28;20440;-79
2021/11/02 10:25:21;;;;;;;0.30;0.20;;;;;;;11.74;65.89;95760.50;5014263;28;20099;-79
2021/11/02 10:28:09;;;;;;;0.20;0.10;;;;;;;11.65;65.53;95767.41;4999704;28;20026;-80
2021/11/02 10:30:37;;;;;;;0.40;0.20;;;;;;;11.78;65.90;95751.78;4994938;28;20519;-79
2021/11/02 10:33:18;;;;;;;0.38;0.10;;;;;;;11.72;65.71;95765.19;4988256;28;20030;-79
2021/11/02 10:36:00;;;;;;;0.20;0.10;;;;;;;11.53;64.98;95760.81;4949502;28;20040;-80
2021/11/02 10:38:31;;;;;;;0.52;0.10;;;;;;;11.40;66.06;95758.94;4970986;28;20037;-80
2021/11/02 10:41:03;;;;;;;1.05;0.10;;;;;;;11.62;65.59;95763.53;4985494;28;20026;-80
2021/11/02 10:43:42;;;;;;;0.98;0.20;;;;;;;11.35;66.74;95762.38;5000007;28;20046;-81
2021/11/02 10:46:10;;;;;;;0.40;0.40;;;;;;;11.61;65.98;95765.34;4995541;28;20050;-79
2021/11/02 10:48:49;;;;;;;0.17;0.13;;;;;;;11.55;65.81;95753.47;4996397;28;20030;-79
2021/11/02 10:51:34;;;;;;;0.28;0.20;;;;;;;11.49;65.38;95761.66;4993619;28;20051;-79
2021/11/02 10:54:09;;;;;;;0.95;0.20;;;;;;;11.42;66.08;95756.81;4976656;28;20030;-79
2021/11/02 10:56:45;;;;;;;0.28;0.20;;;;;;;11.28;65.93;95761.97;4994122;28;20040;-79
2021/11/02 10:59:16;;;;;;;0.77;0.17;;;;;;;11.27;66.52;95755.19;4977708;28;20052;-79
2021/11/02 11:01:47;;;;;;;1.00;0.13;;;;;;;11.40;65.74;95757.09;4973973;28;20033;-79
2021/11/02 11:04:15;;;;;;;1.10;0.20;;;;;;;11.53;66.07;95766.03;4963612;28;20133;-79
2021/11/02 11:06:45;;;;;;;0.55;0.20;;;;;;;11.24;66.50;95760.97;4993311;28;20046;-79
2021/11/02 11:09:12;;;;;;;0.65;0.10;;;;;;;11.40;66.32;95764.91;4972022;28;20484;-79
2021/11/02 11:11:46;;;;;;;0.10;0.10;;;;;;;11.18;66.33;95764.72;4973721;28;20034;-79
2021/11/02 11:14:15;;;;;;;0.17;0.10;;;;;;;11.27;66.24;95757.81;4958395;28;20117;-79
2021/11/02 11:16:48;;;;;;;0.95;0.20;;;;;;;10.99;66.15;95760.28;4974190;28;20034;-80
2021/11/02 11:19:29;;;;;;;1.58;0.40;;;;;;;11.25;66.25;95763.28;4987522;28;20026;-79
2021/11/02 11:21:59;;;;;;;0.93;0.40;;;;;;;11.40;66.18;95759.69;4973821;28;20038;-79
2021/11/02 11:24:34;;;;;;;0.82;0.30;;;;;;;11.52;65.36;95753.28;4976790;28;20044;-79
2021/11/02 11:27:06;;;;;;;0.85;0.30;;;;;;;11.51;66.19;95757.69;4993928;28;20172;-79
2021/11/02 11:29:35;;;;;;;1.98;0.20;;;;;;;11.53;65.91;95757.41;4993230;28;20037;-79
2021/11/02 11:32:01;;;;;;;0.20;0.20;;;;;;;11.72;65.97;95758.16;4977385;28;20045;-79
2021/11/02 11:34:32;;;;;;;2.70;0.30;;;;;;;11.33;65.82;95755.91;4993304;28;20030;-80
2021/11/02 11:37:00;;;;;;;0.40;0.10;;;;;;;11.44;66.21;95755.44;4977490;28;20414;-79
2021/11/02 11:39:28;;;;;;;0.10;0.10;;;;;;;11.42;65.83;95749.75;4967367;28;20049;-78
2021/11/02 11:41:54;;;;;;;0.47;0.20;;;;;;;11.56;65.97;95752.41;4985908;28;20858;-79
2021/11/02 11:44:20;;;;;;;0.20;0.20;;;;;;;11.47;66.49;95748.16;5002677;28;20134;-82
2021/11/02 11:46:58;;;;;;;0.50;0.10;;;;;;;11.41;66.11;95745.63;4971095;28;20023;-82
2021/11/02 11:49:26;;;;;;;1.38;0.20;;;;;;;11.29;65.99;95740.03;4998386;28;20469;-81
2021/11/02 11:51:59;;;;;;;0.20;0.20;;;;;;;11.32;66.21;95747.31;4984274;28;20551;-82
2021/11/02 11:54:30;;;;;;;0.20;0.20;;;;;;;11.49;66.07;95740.81;4969066;28;20023;-82
2021/11/02 11:57:00;;;;;;;0.10;0.10;;;;;;;11.39;66.45;95739.13;5004249;28;20030;-82
2021/11/02 11:59:27;;;;;;;0.10;0.10;;;;;;;11.64;66.27;95740.56;4976611;28;20025;-81
2021/11/02 12:02:00;;;;;;;1.02;0.20;;;;;;;11.59;66.01;95740.66;4992776;28;20108;-79
2021/11/02 12:04:49;;;;;;;0.15;0.15;;;;;;;11.59;66.83;95740.66;4976240;28;20384;-79
2021/11/02 12:07:14;;;;;;;0.20;0.20;;;;;;;11.77;66.65;95739.81;4976527;28;20488;-79
2021/11/02 12:09:44;;;;;;;0.88;0.20;;;;;;;11.67;66.85;95726.97;4974002;28;20033;-79
2021/11/02 12:12:10;;;;;;;0.80;0.20;;;;;;;11.87;66.43;95725.06;4973327;28;20031;-78
2021/11/02 12:14:55;;;;;;;0.90;0.15;;;;;;;11.73;66.70;95733.63;4973558;28;20492;-79
2021/11/02 12:17:21;;;;;;;0.30;0.20;;;;;;;11.94;66.22;95731.47;4982064;28;20025;-78
2021/11/02 12:19:56;;;;;;;0.20;0.10;;;;;;;11.85;67.06;95725.34;4976005;28;20026;-79
2021/11/02 12:22:28;;;;;;;0.13;0.13;;;;;;;11.78;67.04;95725.72;4982952;28;20038;-79
2021/11/02 12:25:10;;;;;;;0.38;0.20;;;;;;;11.71;66.69;95732.38;4989425;28;20034;-79
2021/11/02 12:27:42;;;;;;;0.65;0.20;;;;;;;11.85;66.38;95730.56;4973995;28;20026;-79
2021/11/02 12:30:10;;;;;;;1.15;0.13;;;;;;;11.99;66.01;95736.59;4981535;28;20045;-79
2021/11/02 12:32:46;;;;;;;0.30;0.20;;;;;;;11.96;66.21;95733.78;4988676;28;20041;-79
2021/11/02 12:35:18;;;;;;;0.52;0.20;;;;;;;11.96;66.22;95733.78;4972868;28;20608;-79
2021/11/02 12:37:59;;;;;;;2.35;0.30;;;;;;;11.84;66.49;95734.25;4978208;28;20038;-79
2021/11/02 12:40:26;;;;;;;0.68;0.30;;;;;;;12.17;65.76;95727.13;4988469;28;20128;-79
2021/11/02 12:42:52;;;;;;;0.93;0.22;;;;;;;12.24;65.70;95731.22;5008180;28;20132;-79
2021/11/02 12:45:19;;;;;;;1.02;0.20;;;;;;;12.26;65.82;95729.06;4975911;28;20041;-79
2021/11/02 12:47:46;;;;;;;2.40;0.70;;;;;;;12.31;65.70;95728.97;4975890;28;20034;-79
2021/11/02 12:50:13;;;;;;;1.13;0.40;;;;;;;12.35;65.27;95722.91;4988375;28;20577;-79
2021/11/02 12:52:39;;;;;;;1.20;0.90;;;;;;;12.34;65.56;95717.97;4988375;28;20589;-79
2021/11/02 12:55:06;;;;;;;1.05;0.40;;;;;;;12.28;66.50;95726.94;4992435;28;20022;-78
2021/11/02 12:58:00;;;;;;;0.65;0.40;;;;;;;11.97;66.03;95719.69;5008400;28;20065;-79
2021/11/02 13:00:28;;;;;;;0.95;0.40;;;;;;;12.23;65.78;95725.19;4990913;28;20569;-79
2021/11/02 13:03:02;;;;;;;0.30;0.20;;;;;;;12.02;66.38;95718.81;4991284;28;20048;-78
2021/11/02 13:05:29;;;;;;;0.77;0.77;;;;;;;12.26;65.57;95723.84;4991436;28;20040;-79
2021/11/02 13:08:02;;;;;;;1.60;0.65;;;;;;;12.24;65.79;95726.00;4958849;28;20025;-79
2021/11/02 13:10:32;;;;;;;0.90;0.45;;;;;;;12.26;64.89;95734.28;4990865;28;20096;-79
2021/11/02 13:13:09;;;;;;;0.68;0.30;;;;;;;11.86;66.15;95726.91;5007381;28;20672;-79
2021/11/02 13:16:07;;;;;;;0.95;0.40;;;;;;;11.77;66.72;95721.56;4991583;28;20065;-79
2021/11/02 13:18:39;;;;;;;0.80;0.57;;;;;;;11.99;66.13;95722.78;4958428;28;20036;-79
2021/11/02 13:21:29;;;;;;;0.65;0.50;;;;;;;12.12;66.28;95731.69;4990288;28;20053;-79
2021/11/02 13:24:12;;;;;;;1.65;0.60;;;;;;;12.09;66.23;95722.59;4990918;28;20104;-79
2021/11/02 13:26:42;;;;;;;1.30;0.50;;;;;;;12.09;66.86;95725.19;4987962;28;20064;-78
2021/11/02 13:29:13;;;;;;;0.80;0.43;;;;;;;12.26;66.71;95729.84;4971581;28;20121;-79
2021/11/02 13:31:39;;;;;;;0.85;0.52;;;;;;;12.33;66.63;95732.84;5003423;28;20062;-78
2021/11/02 13:34:07;;;;;;;0.80;0.65;;;;;;;12.32;66.42;95730.50;4990758;28;20121;-79
2021/11/02 13:36:33;;;;;;;2.20;1.52;;;;;;;12.36;66.17;95724.44;4972620;28;20043;-79
2021/11/02 13:39:15;;;;;;;0.88;0.73;;;;;;;12.11;66.29;95727.53;4955757;28;20024;-79
2021/11/02 13:41:51;;;;;;;2.88;2.58;;;;;;;12.21;66.10;95737.00;4959398;28;20034;-79
2021/11/02 13:44:18;;;;;;;1.42;1.27;;;;;;;12.37;65.95;95740.84;4988116;28;20064;-79
2021/11/02 13:46:47;;;;;;;2.60;2.40;;;;;;;12.24;65.52;95745.03;4955312;28;20027;-80
2021/11/02 13:49:13;;;;;;;0.73;0.40;;;;;;;12.24;65.13;95733.81;5003733;28;20033;-80
2021/11/02 13:51:38;;;;;;;0.70;0.50;;;;;;;12.12;65.27;95739.50;4983639;28;20037;-79
2021/11/02 13:54:05;;;;;;;0.40;0.40;;;;;;;12.07;65.17;95739.59;4982299;28;20600;-80
2021/11/02 13:56:37;;;;;;;0.85;0.60;;;;;;;11.98;64.89;95744.72;4995730;28;20403;-80
2021/11/02 13:59:05;;;;;;;0.20;0.20;;;;;;;12.05;65.19;95742.50;5019107;28;20037;-79
2021/11/02 14:01:55;;;;;;;0.30;0.30;;;;;;;11.85;65.26;95748.81;4986351;28;20021;-79
2021/11/02 14:04:24;;;;;;;0.10;0.10;;;;;;;12.03;65.18;95752.47;4987651;28;20109;-80
2021/11/02 14:06:52;;;;;;;1.55;0.40;;;;;;;11.89;66.23;95756.84;4967337;28;20095;-80
2021/11/02 14:09:29;;;;;;;1.90;0.93;;;;;;;11.74;66.26;95750.81;4967379;28;20036;-80
2021/11/02 14:11:56;;;;;;;8.70;5.78;;;;;;;11.96;65.48;95752.03;4985795;28;20160;-80
2021/11/02 14:14:52;;;;;;;8.40;6.32;;;;;;;11.72;65.74;95762.59;4989156;28;20115;-79
2021/11/02 14:17:19;;;;;;;2.67;1.80;;;;;;;11.85;66.30;95751.41;4964103;28;20029;-80
2021/11/02 14:19:47;;;;;;;1.83;0.95;;;;;;;11.89;66.38;95762.03;4973966;28;20033;-79
2021/11/02 14:22:14;;;;;;;1.70;1.60;;;;;;;11.83;66.47;95758.75;4982134;28;20451;-80
2021/11/02 14:24:41;;;;;;;1.33;1.23;;;;;;;11.77;66.51;95765.09;5003406;28;20797;-80
2021/11/02 14:27:09;;;;;;;1.02;0.80;;;;;;;11.77;67.34;95765.91;5006205;28;20057;-80
2021/11/02 14:29:57;;;;;;;1.25;0.50;;;;;;;11.61;67.40;95767.19;4989930;28;20095;-80
2021/11/02 14:32:40;;;;;;;0.93;0.22;;;;;;;11.58;67.42;95768.56;4973875;28;20757;-80
2021/11/02 14:35:09;;;;;;;3.38;0.30;;;;;;;11.84;65.83;95769.97;5005369;28;20541;-80
2021/11/02 14:37:51;;;;;;;1.17;0.40;;;;;;;11.66;67.23;95768.97;4990083;28;20038;-80
2021/11/02 14:40:34;;;;;;;1.35;0.80;;;;;;;11.66;67.75;95763.75;4989056;28;20103;-79
2021/11/02 14:43:19;;;;;;;2.15;0.50;;;;;;;11.59;68.02;95777.16;5006111;28;20040;-79
2021/11/02 14:46:17;;;;;;;0.73;0.73;;;;;;;11.77;67.49;95771.13;4989814;28;20052;-80
2021/11/02 14:48:50;;;;;;;1.95;0.40;;;;;;;11.79;67.29;95778.66;4977681;28;20403;-79
2021/11/02 14:51:22;;;;;;;0.80;0.30;;;;;;;11.77;66.84;95783.38;4974037;28;20036;-79
2021/11/02 14:53:52;;;;;;;1.92;0.73;;;;;;;11.73;66.55;95780.56;5002170;28;20120;-80
2021/11/02 14:56:21;;;;;;;1.35;0.40;;;;;;;11.78;66.81;95784.91;4974065;28;20034;-80
2021/11/02 14:58:54;;;;;;;0.50;0.20;;;;;;;11.68;67.08;95779.88;5005535;28;20099;-79
2021/11/02 15:01:32;;;;;;;1.23;0.30;;;;;;;11.67;67.17;95775.69;4980144;28;20915;-80
2021/11/02 15:04:06;;;;;;;0.70;0.30;;;;;;;11.62;67.21;95776.56;5005787;28;20136;-80
2021/11/02 15:06:37;;;;;;;0.30;0.30;;;;;;;11.79;67.25;95782.03;5004058;28;20038;-79
2021/11/02 15:09:08;;;;;;;1.08;0.40;;;;;;;11.91;66.83;95778.22;4981891;28;20038;-80
2021/11/02 15:11:34;;;;;;;0.40;0.30;;;;;;;11.98;67.26;95773.41;4987890;28;20108;-79
2021/11/02 15:14:03;;;;;;;1.10;0.38;;;;;;;11.91;66.33;95773.78;4990019;28;20117;-79
2021/11/02 15:16:29;;;;;;;0.68;0.30;;;;;;;11.92;66.82;95772.72;4986723;28;20022;-79
2021/11/02 15:19:01;;;;;;;0.75;0.32;;;;;;;11.81;66.67;95766.88;4986234;28;20509;-79
2021/11/02 15:21:37;;;;;;;0.68;0.30;;;;;;;11.76;66.47;95779.22;4962321;28;20412;-79
2021/11/02 15:24:08;;;;;;;0.80;0.30;;;;;;;11.75;66.84;95781.03;4973554;28;20032;-79
2021/11/02 15:26:53;;;;;;;0.68;0.28;;;;;;;11.67;67.05;95786.94;4973962;28;20049;-79
2021/11/02 15:29:20;;;;;;;0.55;0.40;;;;;;;11.75;67.05;95782.88;5005565;28;20041;-80
2021/11/02 15:32:18;;;;;;;1.30;0.40;;;;;;;11.53;67.79;95780.88;4987723;28;20030;-79
2021/11/02 15:34:57;;;;;;;0.50;0.50;;;;;;;11.54;67.31;95782.44;4989606;28;20352;-79
2021/11/02 15:37:26;;;;;;;1.17;0.40;;;;;;;11.67;66.87;95781.72;4989278;28;20455;-80
2021/11/02 15:39:56;;;;;;;0.43;0.30;;;;;;;11.65;67.26;95785.66;5006393;28;20145;-79
2021/11/02 15:42:24;;;;;;;0.52;0.40;;;;;;;11.66;66.77;95785.38;4991500;28;20026;-80
2021/11/02 15:45:05;;;;;;;0.73;0.50;;;;;;;11.39;67.61;95786.81;4982614;28;20041;-80
2021/11/02 15:47:32;;;;;;;0.88;0.40;;;;;;;11.57;67.47;95768.84;4990766;28;20033;-80
2021/11/02 15:50:10;;;;;;;0.38;0.30;;;;;;;11.39;67.09;95778.22;4967372;28;20379;-80
2021/11/02 15:52:36;;;;;;;1.25;0.60;;;;;;;11.65;66.50;95773.38;4957704;28;20040;-79
2021/11/02 15:55:14;;;;;;;1.33;0.40;;;;;;;11.56;66.76;95781.06;4976562;28;20084;-79
2021/11/02 15:57:47;;;;;;;0.40;0.40;;;;;;;11.52;66.96;95789.78;4967722;28;20021;-80
2021/11/02 16:00:14;;;;;;;2.05;0.90;;;;;;;11.62;65.73;95789.63;4989321;28;20041;-80
2021/11/02 16:02:42;;;;;;;2.25;0.80;;;;;;;11.52;66.19;95785.31;4979128;28;20046;-80
2021/11/02 16:05:11;;;;;;;1.55;1.13;;;;;;;11.40;66.13;95785.75;4981065;28;20022;-80
2021/11/02 16:07:37;;;;;;;2.25;1.50;;;;;;;11.36;66.45;95789.19;4972707;28;20122;-80
2021/11/02 16:10:05;;;;;;;2.35;1.50;;;;;;;11.33;66.47;95790.56;4945548;28;20023;-80
2021/11/02 16:12:40;;;;;;;2.03;1.60;;;;;;;11.25;66.44;95788.59;4982069;28;20030;-80
2021/11/02 16:15:18;;;;;;;2.97;1.50;;;;;;;11.17;66.59;95789.22;4985954;28;20037;-80
2021/11/02 16:17:45;;;;;;;1.90;1.25;;;;;;;11.27;66.55;95798.72;4992069;28;20034;-80
2021/11/02 16:20:39;;;;;;;2.25;1.20;;;;;;;10.95;67.21;95798.38;4991501;28;20032;-80
2021/11/02 16:23:12;;;;;;;1.50;0.70;;;;;;;11.23;67.06;95801.88;4954448;28;20054;-80
2021/11/02 16:25:40;;;;;;;1.20;0.73;;;;;;;11.17;66.86;95803.03;4972264;28;20040;-79
2021/11/02 16:28:12;;;;;;;0.80;0.77;;;;;;;11.10;67.40;95794.00;4975605;28;20041;-80
2021/11/02 16:30:42;;;;;;;1.20;0.70;;;;;;;11.13;66.79;95803.88;5008298;28;20108;-79
2021/11/02 16:33:09;;;;;;;1.13;0.90;;;;;;;11.26;67.15;95803.16;4971876;28;20042;-80
2021/11/02 16:36:15;;;;;;;2.40;1.10;;;;;;;11.08;67.24;95798.72;4979238;28;20496;-80
2021/11/02 16:38:41;;;;;;;1.17;0.47;;;;;;;11.27;67.15;95804.69;4986731;28;20655;-80
2021/11/02 16:41:27;;;;;;;1.55;0.93;;;;;;;11.03;67.49;95805.53;5000915;28;20041;-80
2021/11/02 16:50:52;;;;;;;1.80;1.50;;;;;;;11.18;67.29;95816.81;4993701;28;20042;-79
2021/11/02 16:54:13;;;;;;;1.38;0.90;;;;;;;11.17;67.37;95828.28;4956374;28;20037;-80
2021/11/02 17:08:02;;;;;;;1.70;0.60;;;;;;;11.12;67.27;95838.78;4999299;28;20507;-80